Time;durP1;ratioP1;P1;durP2;ratioP2;P2;SDS_P1;SDS_P2;PMS_P1;PMS_P2;Temp;Humidity;BMP_temperature;BMP_pressure;BME280_temperature;BME280_humidity;BME280_pressure;Samples;Min_cycle;Max_cycle;Signal;HPM_P1;HPM_P2
2022/12/05 00:00:23;;;;;;;24.23;13.20;;;1.80;99.90;;;;;;5055069;28;20452;-55
2022/12/05 00:02:49;;;;;;;27.73;14.23;;;1.80;99.90;;;;;;5055280;28;20451;-52
2022/12/05 00:05:16;;;;;;;34.83;18.33;;;1.80;99.90;;;;;;5054617;28;20468;-55
2022/12/05 00:07:43;;;;;;;36.33;18.90;;;1.80;99.90;;;;;;5054757;28;20483;-57
2022/12/05 00:10:10;;;;;;;39.13;18.00;;;1.80;99.90;;;;;;5054801;28;20525;-53
2022/12/05 00:12:38;;;;;;;37.20;17.80;;;1.80;99.90;;;;;;5054679;28;20451;-55
2022/12/05 00:15:11;;;;;;;35.23;18.90;;;1.80;99.90;;;;;;5054740;28;20482;-52
2022/12/05 00:17:38;;;;;;;31.50;15.60;;;1.80;99.90;;;;;;5054752;28;20448;-54
2022/12/05 00:20:07;;;;;;;32.67;19.07;;;1.80;99.90;;;;;;5054642;28;20452;-53
2022/12/05 00:22:35;;;;;;;37.90;18.77;;;1.70;99.90;;;;;;5054436;28;20455;-51
2022/12/05 00:25:02;;;;;;;32.83;17.13;;;1.70;99.90;;;;;;5054669;28;20497;-52
2022/12/05 00:27:28;;;;;;;32.80;18.93;;;1.80;99.90;;;;;;5054450;28;20480;-55
2022/12/05 00:29:55;;;;;;;36.33;19.13;;;1.80;99.90;;;;;;5054500;28;20447;-51
2022/12/05 00:32:23;;;;;;;30.17;16.83;;;1.80;99.90;;;;;;5054516;28;20514;-53
2022/12/05 00:34:50;;;;;;;39.13;20.20;;;1.80;99.90;;;;;;5052948;28;20444;-51
2022/12/05 00:37:16;;;;;;;35.10;18.43;;;1.80;99.90;;;;;;5053860;28;20455;-56
2022/12/05 00:39:43;;;;;;;36.97;19.67;;;1.80;99.90;;;;;;5054090;28;20452;-52
2022/12/05 00:42:10;;;;;;;31.90;16.80;;;1.80;99.90;;;;;;5054346;28;20498;-56
2022/12/05 00:44:36;;;;;;;37.80;19.23;;;1.80;99.90;;;;;;5054105;28;20452;-55
2022/12/05 00:47:03;;;;;;;28.20;16.53;;;1.80;99.90;;;;;;5053810;28;20484;-53
2022/12/05 00:49:31;;;;;;;38.27;18.13;;;1.80;99.90;;;;;;5053976;28;20463;-53
2022/12/05 00:51:58;;;;;;;33.00;17.57;;;1.80;99.90;;;;;;5054316;28;20506;-54
2022/12/05 00:54:24;;;;;;;37.97;18.03;;;1.80;99.90;;;;;;5054026;28;20448;-52
2022/12/05 00:56:55;;;;;;;30.20;16.50;;;1.80;99.90;;;;;;5053606;28;20472;-52
2022/12/05 00:59:22;;;;;;;20.10;10.73;;;1.80;99.90;;;;;;5054061;28;20448;-54
2022/12/05 01:01:50;;;;;;;36.80;18.10;;;1.80;99.90;;;;;;5053772;28;20448;-57
2022/12/05 01:04:22;;;;;;;30.67;17.07;;;1.80;99.90;;;;;;5053819;28;20445;-51
2022/12/05 01:06:51;;;;;;;26.33;15.73;;;1.80;99.90;;;;;;5053390;28;20518;-54
2022/12/05 01:09:19;;;;;;;32.17;17.97;;;1.80;99.90;;;;;;5053884;28;20944;-51
2022/12/05 01:11:47;;;;;;;32.57;18.70;;;1.80;99.90;;;;;;5053565;28;20935;-55
2022/12/05 01:14:16;;;;;;;32.00;17.80;;;1.70;99.90;;;;;;5053631;28;20935;-51
2022/12/05 01:16:44;;;;;;;30.70;17.07;;;1.70;99.90;;;;;;5053236;28;20490;-54
2022/12/05 01:19:14;;;;;;;32.83;17.80;;;1.70;99.90;;;;;;5053595;28;20448;-53
2022/12/05 01:21:41;;;;;;;34.00;18.17;;;1.80;99.90;;;;;;5053351;28;20930;-54
2022/12/05 01:24:09;;;;;;;33.73;18.53;;;1.70;99.90;;;;;;5053523;28;20478;-48
2022/12/05 01:26:36;;;;;;;33.50;17.27;;;1.70;99.90;;;;;;5053194;28;20472;-49
2022/12/05 01:29:04;;;;;;;30.30;17.47;;;1.80;99.90;;;;;;5053465;28;20575;-52
2022/12/05 01:31:33;;;;;;;23.70;13.87;;;1.80;99.90;;;;;;5053261;28;20467;-47
2022/12/05 01:34:01;;;;;;;30.03;17.03;;;1.80;99.90;;;;;;5053442;28;20448;-49
2022/12/05 01:36:29;;;;;;;35.27;17.80;;;1.70;99.90;;;;;;5053019;28;20478;-48
2022/12/05 01:38:57;;;;;;;32.37;15.50;;;1.70;99.90;;;;;;5052906;28;20440;-52
2022/12/05 01:41:29;;;;;;;34.00;17.30;;;1.80;99.90;;;;;;5052570;28;20447;-54
2022/12/05 01:43:58;;;;;;;31.20;16.13;;;1.70;99.90;;;;;;5052342;28;20450;-54
2022/12/05 01:46:26;;;;;;;37.07;18.80;;;1.70;99.90;;;;;;5052287;28;20468;-50
2022/12/05 01:48:56;;;;;;;35.93;19.67;;;1.80;99.90;;;;;;5053159;28;20587;-56
2022/12/05 01:51:24;;;;;;;32.80;17.43;;;1.70;99.90;;;;;;5052986;28;20448;-54
2022/12/05 01:53:51;;;;;;;19.23;10.33;;;1.70;99.90;;;;;;5052972;28;20444;-49
2022/12/05 01:56:19;;;;;;;30.47;17.83;;;1.70;99.90;;;;;;5052240;28;20526;-54
2022/12/05 01:58:48;;;;;;;29.70;17.47;;;1.70;99.90;;;;;;5053076;28;20892;-52
2022/12/05 02:01:17;;;;;;;32.97;17.20;;;1.70;99.90;;;;;;5052612;28;20534;-57
2022/12/05 02:03:44;;;;;;;35.77;18.50;;;1.70;99.90;;;;;;5052969;28;20877;-55
2022/12/05 02:06:13;;;;;;;35.77;19.43;;;1.80;99.90;;;;;;5052239;28;20460;-49
2022/12/05 02:08:40;;;;;;;34.33;18.47;;;1.80;99.90;;;;;;5052786;28;20491;-53
2022/12/05 02:11:09;;;;;;;29.87;18.03;;;1.80;99.90;;;;;;5052468;28;20475;-52
2022/12/05 02:13:53;;;;;;;32.93;17.73;;;1.80;99.90;;;;;;5052652;28;20460;-55
2022/12/05 02:16:29;;;;;;;32.33;17.27;;;1.80;99.90;;;;;;5052222;28;20475;-50
2022/12/05 02:19:09;;;;;;;31.20;16.97;;;1.80;99.90;;;;;;5052483;28;20444;-54
2022/12/05 02:22:22;;;;;;;36.67;17.60;;;1.80;99.90;;;;;;5052404;28;20524;-53
2022/12/05 02:25:14;;;;;;;33.30;16.97;;;1.80;99.90;;;;;;5016539;28;20448;-50
2022/12/05 02:28:00;;;;;;;31.90;15.37;;;1.80;99.90;;;;;;5047525;28;20578;-53
2022/12/05 02:30:34;;;;;;;28.57;15.47;;;1.80;99.90;;;;;;5052521;28;20452;-56
2022/12/05 02:33:08;;;;;;;35.57;19.47;;;1.80;99.90;;;;;;5052243;28;20447;-55
2022/12/05 02:35:46;;;;;;;36.43;18.50;;;1.90;99.90;;;;;;5052145;28;20467;-53
2022/12/05 02:38:21;;;;;;;29.33;15.67;;;1.80;99.90;;;;;;5051865;28;20455;-56
2022/12/05 02:40:56;;;;;;;36.87;17.10;;;1.80;99.90;;;;;;5052344;28;20451;-52
2022/12/05 02:43:29;;;;;;;37.63;19.00;;;1.80;99.90;;;;;;5052180;28;20447;-54
2022/12/05 02:46:00;;;;;;;31.80;17.30;;;1.90;99.90;;;;;;5051905;28;20885;-50
2022/12/05 02:48:28;;;;;;;33.00;17.87;;;1.80;99.90;;;;;;5052007;28;20468;-53
2022/12/05 02:50:58;;;;;;;32.73;17.37;;;1.80;99.90;;;;;;5052022;28;20542;-51
2022/12/05 02:53:27;;;;;;;31.77;18.57;;;1.80;99.90;;;;;;5052139;28;20448;-55
2022/12/05 02:55:55;;;;;;;36.67;19.53;;;1.80;99.90;;;;;;5051488;28;20575;-48
2022/12/05 02:58:25;;;;;;;24.40;13.57;;;1.80;99.90;;;;;;5051085;28;20452;-55
2022/12/05 03:00:56;;;;;;;31.50;15.80;;;1.80;99.90;;;;;;5051610;28;20452;-50
2022/12/05 03:03:25;;;;;;;35.17;17.83;;;1.80;99.90;;;;;;5051776;28;20505;-53
2022/12/05 03:05:58;;;;;;;20.63;12.57;;;1.80;99.90;;;;;;5051689;28;20479;-52
2022/12/05 03:08:29;;;;;;;27.23;13.80;;;1.80;99.90;;;;;;5051770;28;20483;-55
2022/12/05 03:10:58;;;;;;;30.37;17.27;;;1.80;99.90;;;;;;5051686;28;20841;-52
2022/12/05 03:13:28;;;;;;;33.53;17.20;;;1.80;99.90;;;;;;5051434;28;20454;-56
2022/12/05 03:16:00;;;;;;;36.53;17.57;;;1.80;99.90;;;;;;5051612;28;20514;-52
2022/12/05 03:18:31;;;;;;;34.33;18.00;;;1.80;99.90;;;;;;5051803;28;20448;-53
2022/12/05 03:21:02;;;;;;;32.40;16.43;;;1.90;99.90;;;;;;5051642;28;20598;-55
2022/12/05 03:23:33;;;;;;;33.03;18.93;;;1.80;99.90;;;;;;5051391;28;20474;-51
2022/12/05 03:26:10;;;;;;;33.83;18.17;;;1.80;99.90;;;;;;5051452;28;20970;-57
2022/12/05 03:28:46;;;;;;;34.80;17.97;;;1.80;99.90;;;;;;5051543;28;20909;-51
2022/12/05 03:31:16;;;;;;;39.07;18.37;;;1.80;99.90;;;;;;5051577;28;20460;-49
2022/12/05 03:33:49;;;;;;;33.00;16.10;;;1.80;99.90;;;;;;5051313;28;20814;-52
2022/12/05 03:36:20;;;;;;;37.20;18.90;;;1.80;99.90;;;;;;5051071;28;20468;-55
2022/12/05 03:38:53;;;;;;;36.80;18.20;;;1.90;99.90;;;;;;5051320;28;20455;-51
2022/12/05 03:41:25;;;;;;;37.83;18.43;;;1.80;99.90;;;;;;5051521;28;20448;-55
2022/12/05 03:43:57;;;;;;;33.43;18.27;;;1.80;99.90;;;;;;5051260;28;20509;-53
2022/12/05 03:46:27;;;;;;;39.27;16.83;;;1.80;99.90;;;;;;5051185;28;20529;-55
2022/12/05 03:49:00;;;;;;;32.30;16.43;;;1.90;99.90;;;;;;5051271;28;20529;-53
2022/12/05 03:51:34;;;;;;;32.77;16.83;;;1.80;99.90;;;;;;5051455;28;20509;-51
2022/12/05 03:54:05;;;;;;;36.00;18.50;;;1.80;99.90;;;;;;5051306;28;20455;-54
2022/12/05 03:56:35;;;;;;;34.87;19.33;;;1.80;99.90;;;;;;5051026;28;20529;-51
2022/12/05 03:59:09;;;;;;;29.53;16.17;;;1.80;99.90;;;;;;5051185;28;20497;-54
2022/12/05 04:01:38;;;;;;;31.27;16.60;;;1.80;99.90;;;;;;5051501;28;20452;-55
2022/12/05 04:04:13;;;;;;;36.70;17.83;;;1.80;99.90;;;;;;5051242;28;20459;-57
2022/12/05 04:06:42;;;;;;;30.73;16.70;;;1.80;99.90;;;;;;5050941;28;20470;-53
2022/12/05 04:09:12;;;;;;;30.80;15.77;;;1.80;99.90;;;;;;5052057;28;20486;-54
2022/12/05 04:11:43;;;;;;;34.50;17.87;;;1.80;99.90;;;;;;5054910;28;20444;-56
2022/12/05 04:14:13;;;;;;;32.83;17.90;;;1.80;99.90;;;;;;5054955;28;20444;-50
2022/12/05 04:17:03;;;;;;;33.33;17.07;;;1.80;99.90;;;;;;5054646;28;20476;-50
2022/12/05 04:22:17;;;;;;;31.53;18.33;;;1.80;99.90;;;;;;5053765;28;20841;-53
2022/12/05 04:27:38;;;;;;;32.73;15.83;;;1.80;99.90;;;;;;5054605;28;20427;-50
2022/12/05 04:30:07;;;;;;;36.20;17.87;;;1.80;99.90;;;;;;5054360;28;20490;-49
2022/12/05 04:32:39;;;;;;;33.77;17.17;;;1.80;99.90;;;;;;5054493;28;20828;-55
2022/12/05 04:35:13;;;;;;;32.37;16.57;;;1.80;99.90;;;;;;5054564;28;20464;-52
2022/12/05 04:37:44;;;;;;;34.53;16.83;;;1.80;99.90;;;;;;5054285;28;20460;-51
2022/12/05 04:40:14;;;;;;;34.77;16.83;;;1.80;99.90;;;;;;5054298;28;20931;-50
2022/12/05 04:42:43;;;;;;;31.33;16.00;;;1.80;99.90;;;;;;5054326;28;20498;-54
2022/12/05 04:45:12;;;;;;;38.03;17.83;;;1.80;99.90;;;;;;5054306;28;20464;-54
2022/12/05 04:47:43;;;;;;;28.53;16.90;;;1.70;99.90;;;;;;5054230;28;20475;-50
2022/12/05 04:50:13;;;;;;;30.00;15.80;;;1.70;99.90;;;;;;5054239;28;20488;-55
2022/12/05 04:52:41;;;;;;;31.07;16.33;;;1.70;99.90;;;;;;5054211;28;20869;-50
2022/12/05 04:55:11;;;;;;;33.67;16.93;;;1.70;99.90;;;;;;5054135;28;20526;-57
2022/12/05 04:57:45;;;;;;;37.00;18.23;;;1.70;99.90;;;;;;5053608;28;20846;-51
2022/12/05 05:00:13;;;;;;;30.00;16.70;;;1.70;99.90;;;;;;5054282;28;20448;-51
2022/12/05 05:02:44;;;;;;;33.83;16.50;;;1.80;99.90;;;;;;5053939;28;20455;-52
2022/12/05 05:05:15;;;;;;;31.00;15.93;;;1.80;99.90;;;;;;5054046;28;20480;-52
2022/12/05 05:07:47;;;;;;;33.80;17.10;;;1.80;99.90;;;;;;5053582;28;20777;-53
2022/12/05 05:10:18;;;;;;;34.10;17.13;;;1.70;99.90;;;;;;5053664;28;21045;-53
2022/12/05 05:12:44;;;;;;;33.00;16.47;;;1.70;99.90;;;;;;5053667;28;20498;-50
2022/12/05 05:15:11;;;;;;;32.93;15.87;;;1.70;99.90;;;;;;5053477;28;21021;-51
2022/12/05 05:17:38;;;;;;;33.83;18.07;;;1.70;99.90;;;;;;5053473;28;20939;-49
2022/12/05 05:22:49;;;;;;;29.90;16.67;;;1.70;99.90;;;;;;5052883;28;20798;-52
2022/12/05 05:25:16;;;;;;;29.70;16.57;;;1.60;99.90;;;;;;5053385;28;20887;-46
2022/12/05 05:27:42;;;;;;;32.10;16.23;;;1.60;99.90;;;;;;5053583;28;20450;-52
2022/12/05 05:30:10;;;;;;;33.47;16.87;;;1.60;99.90;;;;;;5053694;28;20480;-50
2022/12/05 05:32:36;;;;;;;27.80;16.50;;;1.60;99.90;;;;;;5053807;28;20460;-51
2022/12/05 05:35:03;;;;;;;28.53;15.10;;;1.70;99.90;;;;;;5054307;28;20444;-48
2022/12/05 05:37:30;;;;;;;32.90;17.67;;;1.60;99.90;;;;;;5053075;28;20460;-46
2022/12/05 05:39:58;;;;;;;34.80;16.63;;;1.70;99.90;;;;;;5053263;28;20445;-53
2022/12/05 05:42:25;;;;;;;33.57;17.53;;;1.60;99.90;;;;;;5053036;28;20966;-53
2022/12/05 05:44:51;;;;;;;31.63;16.73;;;1.60;99.90;;;;;;5053017;28;20452;-49
2022/12/05 05:47:18;;;;;;;33.73;16.10;;;1.60;99.90;;;;;;5051688;28;20530;-47
2022/12/05 05:49:45;;;;;;;33.00;15.60;;;1.70;99.90;;;;;;5052610;28;20997;-53
2022/12/05 05:52:11;;;;;;;30.17;16.37;;;1.70;99.90;;;;;;5052663;28;20452;-53
2022/12/05 05:54:38;;;;;;;34.83;16.40;;;1.70;99.90;;;;;;5052975;28;20566;-47
2022/12/05 05:57:06;;;;;;;27.93;16.20;;;1.60;99.90;;;;;;5052547;28;20472;-56
2022/12/05 05:59:33;;;;;;;29.20;17.13;;;1.60;99.90;;;;;;5052532;28;20448;-49
2022/12/05 06:01:59;;;;;;;33.07;17.33;;;1.60;99.90;;;;;;5032754;28;20456;-56
2022/12/05 06:04:26;;;;;;;30.27;16.17;;;1.50;99.90;;;;;;5032407;28;20449;-51
2022/12/05 06:06:54;;;;;;;25.13;14.63;;;1.50;99.90;;;;;;5032695;28;20816;-48
2022/12/05 06:09:20;;;;;;;32.43;16.90;;;1.40;99.90;;;;;;5050670;28;20482;-49
2022/12/05 06:11:47;;;;;;;33.33;16.40;;;1.50;99.90;;;;;;5052366;28;20448;-49
2022/12/05 06:14:15;;;;;;;33.00;17.80;;;1.50;99.90;;;;;;5051979;28;20490;-56
2022/12/05 06:16:42;;;;;;;30.93;16.00;;;1.40;99.90;;;;;;5052005;28;20471;-53
2022/12/05 06:19:08;;;;;;;34.77;17.33;;;1.40;99.90;;;;;;5052223;28;20448;-50
2022/12/05 06:21:35;;;;;;;34.67;17.77;;;1.40;99.90;;;;;;5052000;28;20447;-48
2022/12/05 06:24:02;;;;;;;32.13;15.27;;;1.30;99.90;;;;;;5051818;28;20513;-59
2022/12/05 06:26:28;;;;;;;37.97;16.47;;;1.40;99.90;;;;;;5051549;28;20460;-56
2022/12/05 06:28:55;;;;;;;29.57;16.23;;;1.30;99.90;;;;;;5048786;28;20485;-56
2022/12/05 06:31:25;;;;;;;27.33;15.50;;;1.30;99.90;;;;;;5040153;28;20507;-55
2022/12/05 06:33:52;;;;;;;25.50;14.77;;;1.40;99.90;;;;;;5042972;28;20449;-57
2022/12/05 06:36:21;;;;;;;31.00;17.17;;;1.40;99.90;;;;;;5042962;28;20463;-55
2022/12/05 06:38:48;;;;;;;34.70;17.43;;;1.40;99.90;;;;;;5051849;28;20868;-54
2022/12/05 06:41:17;;;;;;;29.00;16.73;;;1.40;99.90;;;;;;5045795;28;20452;-55
2022/12/05 06:43:44;;;;;;;29.37;15.80;;;1.40;99.90;;;;;;5047892;28;20826;-56
2022/12/05 06:46:13;;;;;;;28.63;15.03;;;1.40;99.90;;;;;;5039166;28;20523;-51
2022/12/05 06:48:41;;;;;;;32.03;17.50;;;1.50;99.90;;;;;;5048884;28;20444;-53
2022/12/05 06:51:10;;;;;;;36.50;18.00;;;1.40;99.90;;;;;;5051131;28;20444;-51
2022/12/05 06:53:37;;;;;;;29.40;16.37;;;1.50;99.90;;;;;;5051892;28;20455;-57
2022/12/05 06:56:06;;;;;;;32.53;16.17;;;1.50;99.90;;;;;;5051041;28;20542;-53
2022/12/05 06:58:33;;;;;;;32.17;16.77;;;1.50;99.90;;;;;;5051527;28;20479;-56
2022/12/05 07:03:47;;;;;;;29.80;16.33;;;1.50;99.90;;;;;;5051229;28;20439;-58
2022/12/05 07:06:15;;;;;;;22.17;10.67;;;1.50;99.90;;;;;;5046504;28;20474;-55
2022/12/05 07:08:42;;;;;;;29.10;16.00;;;1.40;99.90;;;;;;5049950;28;20451;-54
2022/12/05 07:11:09;;;;;;;31.80;16.73;;;1.40;99.90;;;;;;5051326;28;20448;-58
2022/12/05 07:13:35;;;;;;;26.97;16.00;;;1.40;99.90;;;;;;5050445;28;20440;-56
2022/12/05 07:16:05;;;;;;;30.33;15.77;;;1.40;99.90;;;;;;5050572;28;20885;-57
2022/12/05 07:18:32;;;;;;;29.17;16.60;;;1.40;99.90;;;;;;5050609;28;20456;-58
2022/12/05 07:21:02;;;;;;;31.20;16.27;;;1.40;99.90;;;;;;5051151;28;20448;-56
2022/12/05 07:23:29;;;;;;;33.20;16.60;;;1.30;99.90;;;;;;5050965;28;20452;-56
2022/12/05 07:25:56;;;;;;;27.90;15.27;;;1.30;99.90;;;;;;5050490;28;20464;-53
2022/12/05 07:28:23;;;;;;;30.77;16.60;;;1.40;99.90;;;;;;5051112;28;20447;-56
2022/12/05 07:30:59;;;;;;;32.77;17.07;;;1.40;99.90;;;;;;5050480;28;20492;-50
2022/12/05 07:33:26;;;;;;;29.00;16.47;;;1.30;99.90;;;;;;5050305;28;20542;-51
2022/12/05 07:35:53;;;;;;;27.23;14.77;;;1.30;99.90;;;;;;5048413;28;21200;-55
2022/12/05 07:38:21;;;;;;;25.40;15.80;;;1.20;99.90;;;;;;5050738;28;20878;-55
2022/12/05 07:40:47;;;;;;;32.30;15.27;;;1.20;99.90;;;;;;5050619;28;20518;-57
2022/12/05 07:43:14;;;;;;;24.27;14.10;;;1.20;99.90;;;;;;5050959;28;20797;-55
2022/12/05 07:45:41;;;;;;;26.47;16.03;;;1.20;99.90;;;;;;5053814;28;20990;-54
2022/12/05 07:48:07;;;;;;;29.43;14.40;;;1.10;99.90;;;;;;5054480;28;20922;-54
2022/12/05 07:50:34;;;;;;;24.10;14.20;;;1.10;99.90;;;;;;5054326;28;20488;-48
2022/12/05 07:53:01;;;;;;;24.63;13.73;;;1.20;99.90;;;;;;5053432;28;20455;-57
2022/12/05 07:55:29;;;;;;;24.30;14.83;;;1.10;99.90;;;;;;5053514;28;20464;-55
2022/12/05 07:57:55;;;;;;;23.27;14.80;;;1.10;99.90;;;;;;5053690;28;20846;-52
2022/12/05 08:00:22;;;;;;;24.67;13.87;;;1.10;99.90;;;;;;5054465;28;20494;-57
2022/12/05 08:02:49;;;;;;;24.77;13.77;;;1.00;99.90;;;;;;5053777;28;20448;-53
2022/12/05 08:05:16;;;;;;;21.10;12.60;;;1.00;99.90;;;;;;5045837;28;21037;-56
2022/12/05 08:07:43;;;;;;;24.13;13.77;;;1.00;99.90;;;;;;5044145;28;20977;-56
2022/12/05 08:10:10;;;;;;;25.17;14.70;;;1.00;99.90;;;;;;5042409;28;20480;-55
2022/12/05 08:12:38;;;;;;;26.33;14.53;;;1.00;99.90;;;;;;5050818;28;20459;-57
2022/12/05 08:15:06;;;;;;;24.43;14.10;;;0.90;99.90;;;;;;5051879;28;20495;-54
2022/12/05 08:17:33;;;;;;;24.37;15.07;;;1.00;99.90;;;;;;5053785;28;20498;-54
2022/12/05 08:20:00;;;;;;;23.40;13.90;;;1.00;99.90;;;;;;5054239;28;20491;-55
2022/12/05 08:22:26;;;;;;;24.47;13.50;;;0.90;99.90;;;;;;5054260;28;20447;-53
2022/12/05 08:24:53;;;;;;;23.23;14.83;;;1.00;99.90;;;;;;5053811;28;20455;-55
2022/12/05 08:27:20;;;;;;;28.97;15.93;;;1.00;99.90;;;;;;5053909;28;20506;-54
2022/12/05 08:29:48;;;;;;;26.63;13.37;;;1.00;99.90;;;;;;5053841;28;20990;-52
2022/12/05 08:32:14;;;;;;;27.43;16.07;;;1.00;99.90;;;;;;5053533;28;21157;-52
2022/12/05 08:34:41;;;;;;;21.90;13.93;;;0.90;99.90;;;;;;5054162;28;20448;-51
2022/12/05 08:37:08;;;;;;;21.13;12.73;;;1.00;99.90;;;;;;5052917;28;20490;-54
2022/12/05 08:39:35;;;;;;;24.07;14.37;;;1.00;99.90;;;;;;5054074;28;20444;-56
2022/12/05 08:42:02;;;;;;;23.37;13.37;;;1.00;99.90;;;;;;5045275;28;20449;-59
2022/12/05 08:44:29;;;;;;;27.03;15.20;;;0.90;99.90;;;;;;5045847;28;20970;-60
2022/12/05 08:46:57;;;;;;;24.57;14.33;;;0.90;99.90;;;;;;5044449;28;20558;-61
2022/12/05 08:49:24;;;;;;;22.67;13.97;;;1.00;99.90;;;;;;5053625;28;20479;-60
2022/12/05 08:51:50;;;;;;;23.13;13.90;;;1.00;99.90;;;;;;5053580;28;20861;-50
2022/12/05 08:54:17;;;;;;;26.63;14.90;;;1.00;99.90;;;;;;5052651;28;20825;-54
2022/12/05 08:56:44;;;;;;;22.67;15.17;;;0.90;99.90;;;;;;5051050;28;20818;-61
2022/12/05 08:59:11;;;;;;;22.80;14.33;;;1.00;99.90;;;;;;5051182;28;20463;-50
2022/12/05 09:01:39;;;;;;;25.40;14.60;;;1.00;99.90;;;;;;5053556;28;20527;-58
2022/12/05 09:04:08;;;;;;;23.63;14.30;;;1.00;99.90;;;;;;5053065;28;20455;-56
2022/12/05 09:06:38;;;;;;;28.07;14.37;;;0.90;99.90;;;;;;5052585;28;20491;-59
2022/12/05 09:09:07;;;;;;;25.27;13.57;;;1.00;99.90;;;;;;5041434;28;20481;-55
2022/12/05 09:11:39;;;;;;;25.40;14.67;;;1.10;99.90;;;;;;5041566;28;21066;-58
2022/12/05 09:14:06;;;;;;;25.53;14.53;;;1.20;99.90;;;;;;5053022;28;20821;-58
2022/12/05 09:16:34;;;;;;;23.87;14.57;;;1.20;99.90;;;;;;5052472;28;20495;-59
2022/12/05 09:19:01;;;;;;;25.50;13.80;;;1.20;99.90;;;;;;5053109;28;20452;-58
2022/12/05 09:21:31;;;;;;;28.67;13.80;;;1.20;99.90;;;;;;5052381;28;20471;-57
2022/12/05 09:23:58;;;;;;;20.03;12.80;;;1.20;99.90;;;;;;5053436;28;20463;-55
2022/12/05 09:26:27;;;;;;;27.97;14.57;;;1.10;99.90;;;;;;5052047;28;20472;-55
2022/12/05 09:28:53;;;;;;;22.43;12.90;;;1.10;99.90;;;;;;5052738;28;20452;-57
2022/12/05 09:31:22;;;;;;;25.40;14.60;;;1.10;99.90;;;;;;5052609;28;20479;-56
2022/12/05 09:33:50;;;;;;;24.97;14.57;;;1.20;99.90;;;;;;5053142;28;20959;-58
2022/12/05 09:36:18;;;;;;;25.33;14.73;;;1.30;99.90;;;;;;5051493;28;20464;-57
2022/12/05 09:38:47;;;;;;;23.03;14.70;;;1.40;99.90;;;;;;5052201;28;20459;-59
2022/12/05 09:42:03;;;;;;;26.63;15.27;;;1.50;99.90;;;;;;5053142;28;20448;-58
2022/12/05 09:44:22;;;;;;;21.70;13.90;;;1.60;99.90;;;;;;5046063;28;20437;-59
2022/12/05 09:46:55;;;;;;;24.43;13.67;;;1.60;99.90;;;;;;5051812;28;20618;-57
2022/12/05 09:49:24;;;;;;;23.60;14.30;;;1.70;99.90;;;;;;5051566;28;20455;-56
2022/12/05 09:51:53;;;;;;;23.83;13.80;;;1.70;99.90;;;;;;5052460;28;20455;-55
2022/12/05 09:54:22;;;;;;;22.40;12.77;;;1.60;99.90;;;;;;5051555;28;20452;-56
2022/12/05 09:56:51;;;;;;;24.07;15.10;;;1.60;99.90;;;;;;5051291;28;20498;-57
2022/12/05 09:59:20;;;;;;;20.67;13.97;;;1.60;99.90;;;;;;5051515;28;20480;-60
2022/12/05 10:01:54;;;;;;;23.47;13.53;;;1.70;99.90;;;;;;5051884;28;20490;-60
2022/12/05 10:04:47;;;;;;;24.77;15.47;;;1.50;99.90;;;;;;5051704;28;20438;-59
2022/12/05 10:07:21;;;;;;;25.80;14.33;;;1.50;99.90;;;;;;5051347;28;20452;-59
2022/12/05 10:09:55;;;;;;;22.30;14.03;;;1.60;99.90;;;;;;5052012;28;20480;-57
2022/12/05 10:12:40;;;;;;;25.23;14.27;;;1.50;99.90;;;;;;5052051;28;20984;-59
2022/12/05 10:15:14;;;;;;;22.97;13.63;;;1.70;99.90;;;;;;5045451;28;20444;-63
2022/12/05 10:17:45;;;;;;;26.47;13.70;;;1.50;99.90;;;;;;5052036;28;20448;-62
2022/12/05 10:20:18;;;;;;;21.80;13.40;;;1.50;99.90;;;;;;5052207;28;20954;-59
2022/12/05 10:22:48;;;;;;;23.43;12.30;;;1.50;99.90;;;;;;5051768;28;20935;-61
2022/12/05 10:25:20;;;;;;;22.67;14.03;;;1.40;99.90;;;;;;5051923;28;20468;-64
2022/12/05 10:27:51;;;;;;;22.13;13.93;;;1.40;99.90;;;;;;5051368;28;20531;-63
2022/12/05 10:30:20;;;;;;;21.40;13.03;;;1.50;99.90;;;;;;5051788;28;20563;-58
2022/12/05 10:32:53;;;;;;;21.43;12.67;;;1.50;99.90;;;;;;5050955;28;20535;-62
2022/12/05 10:35:21;;;;;;;24.67;15.53;;;1.50;99.90;;;;;;5051199;28;21173;-57
2022/12/05 10:37:50;;;;;;;23.00;13.50;;;1.50;99.90;;;;;;5050669;28;20460;-56
2022/12/05 10:40:19;;;;;;;21.13;14.03;;;1.50;99.90;;;;;;5051366;28;20444;-56
2022/12/05 10:42:48;;;;;;;21.53;14.27;;;1.50;99.90;;;;;;5043003;28;20444;-60
2022/12/05 10:45:18;;;;;;;25.67;15.33;;;1.50;99.90;;;;;;5036553;28;20527;-61
2022/12/05 10:47:44;;;;;;;26.00;15.70;;;1.50;99.90;;;;;;5048265;28;20455;-60
2022/12/05 10:50:22;;;;;;;23.53;15.10;;;1.50;99.90;;;;;;5050058;28;20889;-54
2022/12/05 10:52:49;;;;;;;21.97;13.50;;;1.50;99.90;;;;;;5051268;28;20443;-61
2022/12/05 10:55:19;;;;;;;25.20;14.87;;;1.50;99.90;;;;;;5050309;28;20602;-60
2022/12/05 10:57:50;;;;;;;23.87;14.77;;;1.50;99.90;;;;;;5050764;28;20510;-57
2022/12/05 11:00:21;;;;;;;23.13;14.03;;;1.60;99.90;;;;;;5050939;28;20440;-56
2022/12/05 11:02:48;;;;;;;22.07;14.43;;;1.70;99.90;;;;;;5051489;28;20455;-57
2022/12/05 11:05:16;;;;;;;24.10;15.00;;;1.60;99.90;;;;;;5050644;28;20472;-59
2022/12/05 11:07:48;;;;;;;22.93;14.37;;;1.60;99.90;;;;;;5050757;28;20452;-59
2022/12/05 11:10:22;;;;;;;22.77;14.47;;;1.70;99.90;;;;;;5051023;28;20560;-59
2022/12/05 11:12:49;;;;;;;25.23;14.83;;;1.80;99.90;;;;;;5050990;28;20574;-58
2022/12/05 11:15:24;;;;;;;24.83;15.73;;;1.80;99.90;;;;;;5050959;28;20467;-53
2022/12/05 11:17:52;;;;;;;25.17;15.57;;;1.90;99.90;;;;;;5048377;28;20444;-61
2022/12/05 11:20:38;;;;;;;21.70;13.27;;;1.90;99.90;;;;;;5050412;28;20443;-58
2022/12/05 11:23:23;;;;;;;21.10;13.90;;;1.90;99.90;;;;;;5050608;28;20448;-59
2022/12/05 11:25:51;;;;;;;21.33;14.27;;;1.90;99.90;;;;;;5050788;28;20472;-61
2022/12/05 11:28:33;;;;;;;24.03;13.77;;;2.00;99.90;;;;;;5050675;28;20455;-61
2022/12/05 11:31:01;;;;;;;21.57;13.13;;;2.00;99.90;;;;;;5051244;28;20875;-60
2022/12/05 11:33:31;;;;;;;20.13;13.30;;;1.90;99.90;;;;;;5050514;28;20460;-59
2022/12/05 11:36:03;;;;;;;21.37;13.30;;;1.90;99.90;;;;;;5050358;28;20483;-60
2022/12/05 11:38:33;;;;;;;19.20;12.40;;;1.90;99.90;;;;;;5050515;28;20448;-60
2022/12/05 11:41:17;;;;;;;21.97;14.47;;;1.90;99.90;;;;;;5050927;28;20452;-61
2022/12/05 11:44:05;;;;;;;20.43;13.60;;;1.90;99.90;;;;;;5049515;28;20444;-61
2022/12/05 11:46:41;;;;;;;24.73;14.43;;;1.90;99.90;;;;;;5049190;28;20478;-64
2022/12/05 11:49:21;;;;;;;22.90;14.50;;;2.10;99.90;;;;;;5050228;28;20449;-63
2022/12/05 11:51:56;;;;;;;20.27;13.40;;;2.70;99.90;;;;;;5050402;28;20488;-59
2022/12/05 11:54:51;;;;;;;18.93;13.13;;;3.20;99.90;;;;;;5050793;28;20210;-58
2022/12/05 11:57:31;;;;;;;21.43;14.23;;;3.20;99.90;;;;;;5049646;28;20203;-60
2022/12/05 12:00:17;;;;;;;21.27;13.73;;;3.00;99.90;;;;;;5050700;28;20207;-59
2022/12/05 12:03:08;;;;;;;20.37;13.33;;;2.80;99.90;;;;;;5050508;28;20464;-58
2022/12/05 12:05:38;;;;;;;18.60;12.57;;;2.60;99.90;;;;;;5041836;28;20225;-56
2022/12/05 12:08:16;;;;;;;21.60;13.83;;;2.40;99.90;;;;;;5038131;28;20449;-59
2022/12/05 12:10:51;;;;;;;19.83;13.40;;;2.30;99.90;;;;;;5038464;28;20484;-60
2022/12/05 12:13:31;;;;;;;21.23;12.53;;;2.30;99.90;;;;;;5044740;28;20450;-57
2022/12/05 12:16:09;;;;;;;22.73;14.23;;;2.20;99.90;;;;;;5050229;28;20479;-59
2022/12/05 12:18:54;;;;;;;19.97;13.50;;;2.10;99.90;;;;;;5049962;28;20452;-59
2022/12/05 12:21:29;;;;;;;21.07;12.83;;;2.00;99.90;;;;;;5050583;28;20566;-59
2022/12/05 12:24:06;;;;;;;20.77;13.33;;;2.00;99.90;;;;;;5050656;28;20424;-60
2022/12/05 12:26:46;;;;;;;19.43;13.17;;;2.00;99.90;;;;;;5049710;28;20464;-60
2022/12/05 12:29:26;;;;;;;21.97;14.73;;;1.90;99.90;;;;;;5050130;28;20804;-60
2022/12/05 12:32:10;;;;;;;20.17;13.57;;;2.00;99.90;;;;;;5053817;28;20848;-56
2022/12/05 12:35:02;;;;;;;19.63;13.67;;;2.00;99.90;;;;;;5053545;28;20454;-55
2022/12/05 12:37:38;;;;;;;22.17;13.07;;;1.90;99.90;;;;;;5053185;28;20486;-58
2022/12/05 12:40:13;;;;;;;20.33;13.37;;;1.90;99.90;;;;;;5046247;28;20444;-55
2022/12/05 12:42:48;;;;;;;18.87;13.50;;;1.90;99.90;;;;;;5045233;28;20913;-56
2022/12/05 12:45:35;;;;;;;22.50;13.43;;;2.00;99.90;;;;;;5053078;28;20830;-56
2022/12/05 12:48:30;;;;;;;21.87;13.40;;;2.00;99.90;;;;;;5043523;28;20441;-54
2022/12/05 12:51:00;;;;;;;19.70;12.70;;;2.00;99.90;;;;;;5044558;28;20833;-53
2022/12/05 12:53:50;;;;;;;19.13;13.83;;;1.90;99.90;;;;;;5057601;28;20458;-59
2022/12/05 12:56:29;;;;;;;20.30;13.03;;;1.90;99.90;;;;;;5050141;28;21016;-58
2022/12/05 12:59:04;;;;;;;20.43;13.30;;;1.90;99.90;;;;;;5053485;28;20444;-56
2022/12/05 13:01:39;;;;;;;18.47;13.37;;;1.90;99.90;;;;;;5053500;28;20457;-59
2022/12/05 13:04:11;;;;;;;18.43;12.83;;;1.90;99.90;;;;;;5053208;28;20447;-58